sensor_id;sensor_type;location;lat;lon;timestamp;P1;durP1;ratioP1;P2;durP2;ratioP2
15716;SDS011;7960;50.908;4.204;2022-08-19T00:00:16;26.03;;;23.27;;
15716;SDS011;7960;50.908;4.204;2022-08-19T00:02:45;27.70;;;24.77;;
15716;SDS011;7960;50.908;4.204;2022-08-19T00:05:13;32.07;;;28.47;;
15716;SDS011;7960;50.908;4.204;2022-08-19T00:07:41;37.47;;;28.30;;
15716;SDS011;7960;50.908;4.204;2022-08-19T00:10:09;39.00;;;29.03;;
15716;SDS011;7960;50.908;4.204;2022-08-19T00:12:37;36.33;;;30.10;;
15716;SDS011;7960;50.908;4.204;2022-08-19T00:15:04;38.87;;;30.53;;
15716;SDS011;7960;50.908;4.204;2022-08-19T00:17:32;39.47;;;31.17;;
15716;SDS011;7960;50.908;4.204;2022-08-19T00:20:00;44.60;;;34.40;;
15716;SDS011;7960;50.908;4.204;2022-08-19T00:22:28;40.73;;;33.13;;
15716;SDS011;7960;50.908;4.204;2022-08-19T00:24:54;43.73;;;33.37;;
15716;SDS011;7960;50.908;4.204;2022-08-19T00:27:21;44.53;;;34.30;;
15716;SDS011;7960;50.908;4.204;2022-08-19T00:29:48;46.97;;;35.77;;
15716;SDS011;7960;50.908;4.204;2022-08-19T00:32:15;44.97;;;34.70;;
15716;SDS011;7960;50.908;4.204;2022-08-19T00:34:43;46.33;;;35.20;;
15716;SDS011;7960;50.908;4.204;2022-08-19T00:37:11;44.93;;;35.30;;
15716;SDS011;7960;50.908;4.204;2022-08-19T00:39:38;47.53;;;36.27;;
15716;SDS011;7960;50.908;4.204;2022-08-19T00:42:05;45.77;;;36.83;;
15716;SDS011;7960;50.908;4.204;2022-08-19T00:44:32;51.20;;;37.87;;
15716;SDS011;7960;50.908;4.204;2022-08-19T00:46:59;48.03;;;36.27;;
15716;SDS011;7960;50.908;4.204;2022-08-19T00:49:27;46.37;;;36.13;;
15716;SDS011;7960;50.908;4.204;2022-08-19T00:51:59;46.37;;;37.70;;
15716;SDS011;7960;50.908;4.204;2022-08-19T00:54:29;45.43;;;36.17;;
15716;SDS011;7960;50.908;4.204;2022-08-19T00:56:58;48.30;;;36.63;;
15716;SDS011;7960;50.908;4.204;2022-08-19T00:59:25;49.33;;;35.93;;
15716;SDS011;7960;50.908;4.204;2022-08-19T01:01:54;50.17;;;36.90;;
15716;SDS011;7960;50.908;4.204;2022-08-19T01:04:21;46.33;;;35.97;;
15716;SDS011;7960;50.908;4.204;2022-08-19T01:06:48;45.67;;;35.53;;
15716;SDS011;7960;50.908;4.204;2022-08-19T01:09:15;45.67;;;35.53;;
15716;SDS011;7960;50.908;4.204;2022-08-19T01:11:43;46.70;;;35.57;;
15716;SDS011;7960;50.908;4.204;2022-08-19T01:14:11;46.00;;;35.67;;
15716;SDS011;7960;50.908;4.204;2022-08-19T01:16:40;43.73;;;35.07;;
15716;SDS011;7960;50.908;4.204;2022-08-19T01:19:09;47.27;;;34.93;;
15716;SDS011;7960;50.908;4.204;2022-08-19T01:21:45;44.07;;;34.57;;
15716;SDS011;7960;50.908;4.204;2022-08-19T01:24:19;44.90;;;35.33;;
15716;SDS011;7960;50.908;4.204;2022-08-19T01:26:46;44.53;;;35.40;;
15716;SDS011;7960;50.908;4.204;2022-08-19T01:29:13;43.33;;;33.90;;
15716;SDS011;7960;50.908;4.204;2022-08-19T01:31:40;43.13;;;35.20;;
15716;SDS011;7960;50.908;4.204;2022-08-19T01:34:07;42.73;;;34.03;;
15716;SDS011;7960;50.908;4.204;2022-08-19T01:36:36;42.97;;;33.83;;
15716;SDS011;7960;50.908;4.204;2022-08-19T01:39:07;41.70;;;33.10;;
15716;SDS011;7960;50.908;4.204;2022-08-19T01:41:37;41.03;;;33.77;;
15716;SDS011;7960;50.908;4.204;2022-08-19T01:44:05;39.80;;;33.33;;
15716;SDS011;7960;50.908;4.204;2022-08-19T01:46:33;39.17;;;32.47;;
15716;SDS011;7960;50.908;4.204;2022-08-19T01:49:01;41.63;;;31.90;;
15716;SDS011;7960;50.908;4.204;2022-08-19T01:51:29;38.13;;;30.63;;
15716;SDS011;7960;50.908;4.204;2022-08-19T01:53:56;35.30;;;28.97;;
15716;SDS011;7960;50.908;4.204;2022-08-19T01:56:23;35.63;;;26.93;;
15716;SDS011;7960;50.908;4.204;2022-08-19T01:58:53;32.70;;;26.37;;
15716;SDS011;7960;50.908;4.204;2022-08-19T02:01:21;29.43;;;24.73;;
15716;SDS011;7960;50.908;4.204;2022-08-19T02:03:48;30.00;;;24.13;;
15716;SDS011;7960;50.908;4.204;2022-08-19T02:06:18;32.23;;;24.50;;
15716;SDS011;7960;50.908;4.204;2022-08-19T02:08:45;30.23;;;24.73;;
15716;SDS011;7960;50.908;4.204;2022-08-19T02:11:17;30.37;;;24.80;;
15716;SDS011;7960;50.908;4.204;2022-08-19T02:13:46;29.50;;;24.50;;
15716;SDS011;7960;50.908;4.204;2022-08-19T02:16:15;30.40;;;24.40;;
15716;SDS011;7960;50.908;4.204;2022-08-19T02:18:43;32.20;;;25.43;;
15716;SDS011;7960;50.908;4.204;2022-08-19T02:21:09;33.60;;;25.40;;
15716;SDS011;7960;50.908;4.204;2022-08-19T02:23:37;28.23;;;24.57;;
15716;SDS011;7960;50.908;4.204;2022-08-19T02:26:04;30.80;;;25.23;;
15716;SDS011;7960;50.908;4.204;2022-08-19T02:28:31;31.10;;;23.97;;
15716;SDS011;7960;50.908;4.204;2022-08-19T02:30:59;27.10;;;23.13;;
15716;SDS011;7960;50.908;4.204;2022-08-19T02:33:28;27.93;;;23.10;;
15716;SDS011;7960;50.908;4.204;2022-08-19T02:35:55;31.13;;;23.37;;
15716;SDS011;7960;50.908;4.204;2022-08-19T02:38:22;30.63;;;23.53;;
15716;SDS011;7960;50.908;4.204;2022-08-19T02:40:52;25.93;;;22.13;;
15716;SDS011;7960;50.908;4.204;2022-08-19T02:43:21;27.00;;;22.27;;
15716;SDS011;7960;50.908;4.204;2022-08-19T02:45:48;28.07;;;22.97;;
15716;SDS011;7960;50.908;4.204;2022-08-19T02:48:17;27.93;;;22.07;;
15716;SDS011;7960;50.908;4.204;2022-08-19T02:50:46;29.07;;;22.70;;
15716;SDS011;7960;50.908;4.204;2022-08-19T02:53:16;28.30;;;22.63;;
15716;SDS011;7960;50.908;4.204;2022-08-19T02:55:43;27.77;;;21.67;;
15716;SDS011;7960;50.908;4.204;2022-08-19T02:58:12;28.20;;;23.30;;
15716;SDS011;7960;50.908;4.204;2022-08-19T03:00:43;25.93;;;22.37;;
15716;SDS011;7960;50.908;4.204;2022-08-19T03:03:12;30.93;;;24.20;;
15716;SDS011;7960;50.908;4.204;2022-08-19T03:05:39;29.00;;;23.17;;
15716;SDS011;7960;50.908;4.204;2022-08-19T03:08:08;30.63;;;23.03;;
15716;SDS011;7960;50.908;4.204;2022-08-19T03:10:40;36.20;;;24.03;;
15716;SDS011;7960;50.908;4.204;2022-08-19T03:13:10;32.70;;;24.20;;
15716;SDS011;7960;50.908;4.204;2022-08-19T03:15:41;26.93;;;22.57;;
15716;SDS011;7960;50.908;4.204;2022-08-19T03:18:09;31.00;;;22.27;;
15716;SDS011;7960;50.908;4.204;2022-08-19T03:20:39;29.00;;;22.87;;
15716;SDS011;7960;50.908;4.204;2022-08-19T03:23:09;31.17;;;24.80;;
15716;SDS011;7960;50.908;4.204;2022-08-19T03:25:38;29.27;;;22.63;;
15716;SDS011;7960;50.908;4.204;2022-08-19T03:28:08;33.53;;;22.80;;
15716;SDS011;7960;50.908;4.204;2022-08-19T03:30:36;27.87;;;23.07;;
15716;SDS011;7960;50.908;4.204;2022-08-19T03:33:04;28.27;;;21.40;;
15716;SDS011;7960;50.908;4.204;2022-08-19T03:35:31;29.70;;;22.13;;
15716;SDS011;7960;50.908;4.204;2022-08-19T03:38:01;25.63;;;21.13;;
15716;SDS011;7960;50.908;4.204;2022-08-19T03:40:30;27.77;;;22.53;;
15716;SDS011;7960;50.908;4.204;2022-08-19T03:42:57;28.87;;;22.30;;
15716;SDS011;7960;50.908;4.204;2022-08-19T03:45:24;29.53;;;22.60;;
15716;SDS011;7960;50.908;4.204;2022-08-19T03:47:50;28.73;;;22.50;;
15716;SDS011;7960;50.908;4.204;2022-08-19T03:50:17;28.57;;;21.10;;
15716;SDS011;7960;50.908;4.204;2022-08-19T03:52:47;30.07;;;22.10;;
15716;SDS011;7960;50.908;4.204;2022-08-19T03:55:16;29.50;;;23.20;;
15716;SDS011;7960;50.908;4.204;2022-08-19T03:57:44;26.87;;;21.60;;
15716;SDS011;7960;50.908;4.204;2022-08-19T04:00:13;27.10;;;21.80;;
15716;SDS011;7960;50.908;4.204;2022-08-19T04:02:41;34.77;;;22.13;;
15716;SDS011;7960;50.908;4.204;2022-08-19T04:05:08;27.00;;;21.73;;
15716;SDS011;7960;50.908;4.204;2022-08-19T04:07:35;26.77;;;21.37;;
15716;SDS011;7960;50.908;4.204;2022-08-19T04:10:02;27.63;;;21.10;;
15716;SDS011;7960;50.908;4.204;2022-08-19T04:12:30;27.97;;;21.63;;
15716;SDS011;7960;50.908;4.204;2022-08-19T04:14:58;26.73;;;20.77;;
15716;SDS011;7960;50.908;4.204;2022-08-19T04:17:25;28.50;;;21.90;;
15716;SDS011;7960;50.908;4.204;2022-08-19T04:19:52;31.87;;;20.73;;
15716;SDS011;7960;50.908;4.204;2022-08-19T04:22:19;24.57;;;19.77;;
15716;SDS011;7960;50.908;4.204;2022-08-19T04:24:46;28.57;;;20.83;;
15716;SDS011;7960;50.908;4.204;2022-08-19T04:27:13;26.23;;;19.83;;
15716;SDS011;7960;50.908;4.204;2022-08-19T04:29:41;25.03;;;19.57;;
15716;SDS011;7960;50.908;4.204;2022-08-19T04:32:09;25.37;;;19.40;;
15716;SDS011;7960;50.908;4.204;2022-08-19T04:34:36;26.73;;;19.77;;
15716;SDS011;7960;50.908;4.204;2022-08-19T04:37:04;27.53;;;19.63;;
15716;SDS011;7960;50.908;4.204;2022-08-19T04:39:37;26.00;;;18.77;;
15716;SDS011;7960;50.908;4.204;2022-08-19T04:42:22;26.70;;;19.03;;
15716;SDS011;7960;50.908;4.204;2022-08-19T04:45:07;25.10;;;18.60;;
15716;SDS011;7960;50.908;4.204;2022-08-19T04:47:37;26.87;;;19.43;;
15716;SDS011;7960;50.908;4.204;2022-08-19T04:50:05;27.20;;;19.83;;
15716;SDS011;7960;50.908;4.204;2022-08-19T04:52:32;25.07;;;18.33;;
15716;SDS011;7960;50.908;4.204;2022-08-19T04:55:00;25.50;;;18.10;;
15716;SDS011;7960;50.908;4.204;2022-08-19T04:57:26;26.23;;;18.67;;
15716;SDS011;7960;50.908;4.204;2022-08-19T04:59:54;26.67;;;18.67;;
15716;SDS011;7960;50.908;4.204;2022-08-19T05:02:21;21.90;;;17.43;;
15716;SDS011;7960;50.908;4.204;2022-08-19T05:04:51;26.77;;;18.20;;
15716;SDS011;7960;50.908;4.204;2022-08-19T05:07:22;22.87;;;16.90;;
15716;SDS011;7960;50.908;4.204;2022-08-19T05:09:49;25.17;;;17.50;;
15716;SDS011;7960;50.908;4.204;2022-08-19T05:12:16;21.90;;;17.23;;
15716;SDS011;7960;50.908;4.204;2022-08-19T05:14:43;21.67;;;16.73;;
15716;SDS011;7960;50.908;4.204;2022-08-19T05:17:12;20.33;;;16.37;;
15716;SDS011;7960;50.908;4.204;2022-08-19T05:19:39;21.03;;;16.70;;
15716;SDS011;7960;50.908;4.204;2022-08-19T05:22:24;27.80;;;17.00;;
15716;SDS011;7960;50.908;4.204;2022-08-19T05:25:04;26.00;;;17.67;;
15716;SDS011;7960;50.908;4.204;2022-08-19T05:27:33;24.33;;;16.50;;
15716;SDS011;7960;50.908;4.204;2022-08-19T05:30:00;25.70;;;17.30;;
15716;SDS011;7960;50.908;4.204;2022-08-19T05:32:27;26.90;;;17.40;;
15716;SDS011;7960;50.908;4.204;2022-08-19T05:34:54;22.70;;;16.07;;
15716;SDS011;7960;50.908;4.204;2022-08-19T05:37:21;24.70;;;16.00;;
15716;SDS011;7960;50.908;4.204;2022-08-19T05:39:53;24.43;;;16.93;;
15716;SDS011;7960;50.908;4.204;2022-08-19T05:42:20;23.53;;;15.00;;
15716;SDS011;7960;50.908;4.204;2022-08-19T05:44:48;23.40;;;15.27;;
15716;SDS011;7960;50.908;4.204;2022-08-19T05:47:16;20.53;;;15.93;;
15716;SDS011;7960;50.908;4.204;2022-08-19T05:49:44;21.13;;;14.37;;
15716;SDS011;7960;50.908;4.204;2022-08-19T05:52:12;20.00;;;14.83;;
15716;SDS011;7960;50.908;4.204;2022-08-19T05:54:41;20.53;;;14.13;;
15716;SDS011;7960;50.908;4.204;2022-08-19T05:57:11;21.53;;;14.70;;
15716;SDS011;7960;50.908;4.204;2022-08-19T05:59:38;22.77;;;15.30;;
15716;SDS011;7960;50.908;4.204;2022-08-19T06:02:05;20.23;;;14.67;;
15716;SDS011;7960;50.908;4.204;2022-08-19T06:04:32;20.70;;;15.37;;
15716;SDS011;7960;50.908;4.204;2022-08-19T06:06:59;18.03;;;13.63;;
15716;SDS011;7960;50.908;4.204;2022-08-19T06:09:27;19.57;;;14.10;;
15716;SDS011;7960;50.908;4.204;2022-08-19T06:11:55;22.83;;;15.17;;
15716;SDS011;7960;50.908;4.204;2022-08-19T06:14:26;22.20;;;15.10;;
15716;SDS011;7960;50.908;4.204;2022-08-19T06:16:55;22.93;;;14.27;;
15716;SDS011;7960;50.908;4.204;2022-08-19T06:19:25;20.40;;;15.37;;
15716;SDS011;7960;50.908;4.204;2022-08-19T06:21:55;20.33;;;14.33;;
15716;SDS011;7960;50.908;4.204;2022-08-19T06:24:23;18.13;;;13.80;;
15716;SDS011;7960;50.908;4.204;2022-08-19T06:26:53;19.67;;;14.33;;
15716;SDS011;7960;50.908;4.204;2022-08-19T06:29:22;19.87;;;14.47;;
15716;SDS011;7960;50.908;4.204;2022-08-19T06:31:52;21.17;;;14.90;;
15716;SDS011;7960;50.908;4.204;2022-08-19T06:34:21;19.00;;;14.90;;
15716;SDS011;7960;50.908;4.204;2022-08-19T06:36:49;21.57;;;14.17;;
15716;SDS011;7960;50.908;4.204;2022-08-19T06:39:18;23.37;;;13.90;;
15716;SDS011;7960;50.908;4.204;2022-08-19T06:41:48;19.37;;;14.10;;
15716;SDS011;7960;50.908;4.204;2022-08-19T06:44:17;20.17;;;14.07;;
15716;SDS011;7960;50.908;4.204;2022-08-19T06:46:45;22.33;;;14.33;;
15716;SDS011;7960;50.908;4.204;2022-08-19T06:49:15;18.60;;;12.53;;
15716;SDS011;7960;50.908;4.204;2022-08-19T06:51:43;21.50;;;13.47;;
15716;SDS011;7960;50.908;4.204;2022-08-19T06:54:12;16.03;;;12.47;;
15716;SDS011;7960;50.908;4.204;2022-08-19T06:56:40;19.80;;;13.00;;
15716;SDS011;7960;50.908;4.204;2022-08-19T06:59:09;17.80;;;12.07;;
15716;SDS011;7960;50.908;4.204;2022-08-19T07:01:39;14.63;;;11.87;;
15716;SDS011;7960;50.908;4.204;2022-08-19T07:04:07;20.00;;;11.90;;
15716;SDS011;7960;50.908;4.204;2022-08-19T07:06:36;15.37;;;11.90;;
15716;SDS011;7960;50.908;4.204;2022-08-19T07:09:04;14.47;;;11.53;;
15716;SDS011;7960;50.908;4.204;2022-08-19T07:11:32;16.17;;;10.93;;
15716;SDS011;7960;50.908;4.204;2022-08-19T07:13:59;18.77;;;10.43;;
15716;SDS011;7960;50.908;4.204;2022-08-19T07:16:26;15.30;;;10.47;;
15716;SDS011;7960;50.908;4.204;2022-08-19T07:18:53;13.60;;;9.97;;
15716;SDS011;7960;50.908;4.204;2022-08-19T07:21:22;12.13;;;9.63;;
15716;SDS011;7960;50.908;4.204;2022-08-19T07:23:53;14.00;;;10.40;;
15716;SDS011;7960;50.908;4.204;2022-08-19T07:26:22;12.93;;;9.87;;
15716;SDS011;7960;50.908;4.204;2022-08-19T07:28:50;14.53;;;9.00;;
15716;SDS011;7960;50.908;4.204;2022-08-19T07:31:19;16.37;;;9.80;;
15716;SDS011;7960;50.908;4.204;2022-08-19T07:33:49;12.70;;;9.60;;
15716;SDS011;7960;50.908;4.204;2022-08-19T07:36:18;13.03;;;9.10;;
15716;SDS011;7960;50.908;4.204;2022-08-19T07:38:47;14.47;;;9.27;;
15716;SDS011;7960;50.908;4.204;2022-08-19T07:41:18;12.23;;;9.47;;
15716;SDS011;7960;50.908;4.204;2022-08-19T07:43:47;14.97;;;9.07;;
15716;SDS011;7960;50.908;4.204;2022-08-19T07:46:15;15.40;;;8.30;;
15716;SDS011;7960;50.908;4.204;2022-08-19T07:48:45;10.93;;;8.17;;
15716;SDS011;7960;50.908;4.204;2022-08-19T07:51:15;12.47;;;8.20;;
15716;SDS011;7960;50.908;4.204;2022-08-19T07:53:43;15.67;;;9.00;;
15716;SDS011;7960;50.908;4.204;2022-08-19T07:56:11;13.53;;;8.43;;
15716;SDS011;7960;50.908;4.204;2022-08-19T07:58:40;9.33;;;8.20;;
15716;SDS011;7960;50.908;4.204;2022-08-19T08:01:10;10.27;;;8.07;;
15716;SDS011;7960;50.908;4.204;2022-08-19T08:03:39;11.27;;;8.40;;
15716;SDS011;7960;50.908;4.204;2022-08-19T08:06:23;11.10;;;8.07;;
15716;SDS011;7960;50.908;4.204;2022-08-19T08:09:08;10.43;;;8.13;;
15716;SDS011;7960;50.908;4.204;2022-08-19T08:11:46;11.07;;;8.40;;
15716;SDS011;7960;50.908;4.204;2022-08-19T08:14:18;11.90;;;8.27;;
15716;SDS011;7960;50.908;4.204;2022-08-19T08:16:47;10.67;;;7.97;;
15716;SDS011;7960;50.908;4.204;2022-08-19T08:19:16;14.87;;;9.33;;
15716;SDS011;7960;50.908;4.204;2022-08-19T08:21:44;11.30;;;8.37;;
15716;SDS011;7960;50.908;4.204;2022-08-19T08:24:11;14.47;;;8.73;;
15716;SDS011;7960;50.908;4.204;2022-08-19T08:26:38;10.53;;;7.93;;
15716;SDS011;7960;50.908;4.204;2022-08-19T08:29:05;15.37;;;8.90;;
15716;SDS011;7960;50.908;4.204;2022-08-19T08:31:39;13.40;;;8.67;;
15716;SDS011;7960;50.908;4.204;2022-08-19T08:34:07;11.03;;;8.73;;
15716;SDS011;7960;50.908;4.204;2022-08-19T08:36:35;12.10;;;8.67;;
15716;SDS011;7960;50.908;4.204;2022-08-19T08:39:05;14.93;;;8.93;;
15716;SDS011;7960;50.908;4.204;2022-08-19T08:41:34;12.17;;;8.27;;
15716;SDS011;7960;50.908;4.204;2022-08-19T08:44:13;14.70;;;9.53;;
15716;SDS011;7960;50.908;4.204;2022-08-19T08:46:46;13.20;;;9.10;;
15716;SDS011;7960;50.908;4.204;2022-08-19T08:49:19;11.30;;;8.40;;
15716;SDS011;7960;50.908;4.204;2022-08-19T08:51:57;12.53;;;9.27;;
15716;SDS011;7960;50.908;4.204;2022-08-19T08:54:30;13.90;;;9.00;;
15716;SDS011;7960;50.908;4.204;2022-08-19T08:57:02;13.13;;;8.03;;
15716;SDS011;7960;50.908;4.204;2022-08-19T08:59:39;14.57;;;8.83;;
15716;SDS011;7960;50.908;4.204;2022-08-19T09:02:11;9.70;;;8.70;;
15716;SDS011;7960;50.908;4.204;2022-08-19T09:04:38;12.00;;;8.63;;
15716;SDS011;7960;50.908;4.204;2022-08-19T09:07:12;12.97;;;8.40;;
15716;SDS011;7960;50.908;4.204;2022-08-19T09:09:46;11.60;;;7.83;;
15716;SDS011;7960;50.908;4.204;2022-08-19T09:12:20;9.73;;;7.67;;
15716;SDS011;7960;50.908;4.204;2022-08-19T09:15:17;9.33;;;7.57;;
15716;SDS011;7960;50.908;4.204;2022-08-19T09:17:50;9.10;;;6.80;;
15716;SDS011;7960;50.908;4.204;2022-08-19T09:20:18;11.30;;;7.10;;
15716;SDS011;7960;50.908;4.204;2022-08-19T09:22:46;10.63;;;7.33;;
15716;SDS011;7960;50.908;4.204;2022-08-19T09:25:15;11.73;;;6.90;;
15716;SDS011;7960;50.908;4.204;2022-08-19T09:27:43;11.00;;;7.30;;
15716;SDS011;7960;50.908;4.204;2022-08-19T09:30:13;9.67;;;6.97;;
15716;SDS011;7960;50.908;4.204;2022-08-19T09:32:43;8.40;;;6.20;;
15716;SDS011;7960;50.908;4.204;2022-08-19T09:35:12;8.27;;;6.20;;
15716;SDS011;7960;50.908;4.204;2022-08-19T09:37:41;7.20;;;6.30;;
15716;SDS011;7960;50.908;4.204;2022-08-19T09:40:10;7.73;;;6.40;;
15716;SDS011;7960;50.908;4.204;2022-08-19T09:42:37;11.03;;;6.53;;
15716;SDS011;7960;50.908;4.204;2022-08-19T09:45:05;8.00;;;6.83;;
15716;SDS011;7960;50.908;4.204;2022-08-19T09:47:33;10.50;;;7.33;;
15716;SDS011;7960;50.908;4.204;2022-08-19T09:50:03;9.50;;;6.63;;
15716;SDS011;7960;50.908;4.204;2022-08-19T09:52:36;9.83;;;7.33;;
15716;SDS011;7960;50.908;4.204;2022-08-19T09:55:03;10.40;;;7.43;;
15716;SDS011;7960;50.908;4.204;2022-08-19T09:57:31;11.17;;;7.60;;
15716;SDS011;7960;50.908;4.204;2022-08-19T09:59:58;10.00;;;7.10;;
15716;SDS011;7960;50.908;4.204;2022-08-19T10:02:25;9.77;;;7.17;;
15716;SDS011;7960;50.908;4.204;2022-08-19T10:04:52;10.80;;;7.13;;
15716;SDS011;7960;50.908;4.204;2022-08-19T10:07:38;11.10;;;7.67;;
15716;SDS011;7960;50.908;4.204;2022-08-19T10:10:06;9.37;;;7.97;;
15716;SDS011;7960;50.908;4.204;2022-08-19T10:12:34;10.20;;;7.83;;
15716;SDS011;7960;50.908;4.204;2022-08-19T10:15:02;10.97;;;7.20;;
15716;SDS011;7960;50.908;4.204;2022-08-19T10:17:31;10.67;;;7.13;;
15716;SDS011;7960;50.908;4.204;2022-08-19T10:20:00;13.03;;;7.30;;
15716;SDS011;7960;50.908;4.204;2022-08-19T10:22:29;11.10;;;7.20;;
15716;SDS011;7960;50.908;4.204;2022-08-19T10:24:57;8.90;;;7.00;;
15716;SDS011;7960;50.908;4.204;2022-08-19T10:27:24;8.77;;;6.83;;
15716;SDS011;7960;50.908;4.204;2022-08-19T10:29:52;11.13;;;7.10;;
15716;SDS011;7960;50.908;4.204;2022-08-19T10:32:19;11.70;;;7.20;;
15716;SDS011;7960;50.908;4.204;2022-08-19T10:34:46;8.90;;;6.80;;
15716;SDS011;7960;50.908;4.204;2022-08-19T10:37:14;9.07;;;6.70;;
15716;SDS011;7960;50.908;4.204;2022-08-19T10:39:42;9.10;;;6.37;;
15716;SDS011;7960;50.908;4.204;2022-08-19T10:42:14;10.33;;;5.37;;
15716;SDS011;7960;50.908;4.204;2022-08-19T10:44:43;5.90;;;5.07;;
15716;SDS011;7960;50.908;4.204;2022-08-19T10:47:12;5.47;;;4.97;;
15716;SDS011;7960;50.908;4.204;2022-08-19T10:49:39;5.10;;;4.13;;
15716;SDS011;7960;50.908;4.204;2022-08-19T10:52:19;4.83;;;3.93;;
15716;SDS011;7960;50.908;4.204;2022-08-19T10:55:01;4.53;;;4.13;;
15716;SDS011;7960;50.908;4.204;2022-08-19T10:57:49;5.40;;;4.40;;
15716;SDS011;7960;50.908;4.204;2022-08-19T11:00:17;5.27;;;4.63;;
15716;SDS011;7960;50.908;4.204;2022-08-19T11:02:45;6.60;;;4.43;;
15716;SDS011;7960;50.908;4.204;2022-08-19T11:05:12;9.73;;;4.73;;
15716;SDS011;7960;50.908;4.204;2022-08-19T11:07:39;6.13;;;4.87;;
15716;SDS011;7960;50.908;4.204;2022-08-19T11:10:08;6.80;;;5.87;;
15716;SDS011;7960;50.908;4.204;2022-08-19T11:12:36;6.30;;;5.17;;
15716;SDS011;7960;50.908;4.204;2022-08-19T11:15:07;7.63;;;5.40;;
15716;SDS011;7960;50.908;4.204;2022-08-19T11:17:36;9.57;;;5.93;;
15716;SDS011;7960;50.908;4.204;2022-08-19T11:20:06;8.10;;;5.80;;
15716;SDS011;7960;50.908;4.204;2022-08-19T11:22:34;10.13;;;7.57;;
15716;SDS011;7960;50.908;4.204;2022-08-19T11:25:01;9.97;;;7.30;;
15716;SDS011;7960;50.908;4.204;2022-08-19T11:27:28;8.43;;;7.20;;
15716;SDS011;7960;50.908;4.204;2022-08-19T11:29:55;10.10;;;7.60;;
15716;SDS011;7960;50.908;4.204;2022-08-19T11:32:26;10.37;;;8.60;;
15716;SDS011;7960;50.908;4.204;2022-08-19T11:34:53;10.37;;;8.87;;
15716;SDS011;7960;50.908;4.204;2022-08-19T11:37:19;12.17;;;9.63;;
15716;SDS011;7960;50.908;4.204;2022-08-19T11:39:46;11.70;;;9.33;;
15716;SDS011;7960;50.908;4.204;2022-08-19T11:42:13;13.17;;;10.37;;
15716;SDS011;7960;50.908;4.204;2022-08-19T11:45:00;11.47;;;9.97;;
15716;SDS011;7960;50.908;4.204;2022-08-19T11:47:29;9.70;;;8.80;;
15716;SDS011;7960;50.908;4.204;2022-08-19T11:49:56;9.67;;;8.60;;
15716;SDS011;7960;50.908;4.204;2022-08-19T11:52:23;10.97;;;8.47;;
15716;SDS011;7960;50.908;4.204;2022-08-19T11:54:50;13.77;;;9.53;;
15716;SDS011;7960;50.908;4.204;2022-08-19T11:57:17;10.07;;;9.07;;
15716;SDS011;7960;50.908;4.204;2022-08-19T11:59:47;8.93;;;8.00;;
15716;SDS011;7960;50.908;4.204;2022-08-19T12:02:15;9.67;;;8.77;;
15716;SDS011;7960;50.908;4.204;2022-08-19T12:04:43;9.77;;;8.70;;
15716;SDS011;7960;50.908;4.204;2022-08-19T12:07:10;8.53;;;7.73;;
15716;SDS011;7960;50.908;4.204;2022-08-19T12:09:37;11.53;;;7.80;;
15716;SDS011;7960;50.908;4.204;2022-08-19T12:12:04;8.60;;;7.57;;
15716;SDS011;7960;50.908;4.204;2022-08-19T12:14:31;8.40;;;6.93;;
15716;SDS011;7960;50.908;4.204;2022-08-19T12:16:59;7.43;;;6.67;;
15716;SDS011;7960;50.908;4.204;2022-08-19T12:19:27;7.67;;;6.87;;
15716;SDS011;7960;50.908;4.204;2022-08-19T12:21:57;7.83;;;6.03;;
15716;SDS011;7960;50.908;4.204;2022-08-19T12:24:26;8.33;;;5.60;;
15716;SDS011;7960;50.908;4.204;2022-08-19T12:26:54;7.33;;;5.93;;
15716;SDS011;7960;50.908;4.204;2022-08-19T12:29:21;5.83;;;5.23;;
15716;SDS011;7960;50.908;4.204;2022-08-19T12:31:49;6.63;;;5.07;;
15716;SDS011;7960;50.908;4.204;2022-08-19T12:34:16;5.07;;;4.50;;
15716;SDS011;7960;50.908;4.204;2022-08-19T12:36:44;5.80;;;5.30;;
15716;SDS011;7960;50.908;4.204;2022-08-19T12:39:15;5.50;;;5.00;;
15716;SDS011;7960;50.908;4.204;2022-08-19T12:41:42;6.67;;;4.87;;
15716;SDS011;7960;50.908;4.204;2022-08-19T12:44:09;5.33;;;4.83;;
15716;SDS011;7960;50.908;4.204;2022-08-19T12:46:37;5.03;;;4.53;;
15716;SDS011;7960;50.908;4.204;2022-08-19T12:49:04;5.40;;;5.00;;
15716;SDS011;7960;50.908;4.204;2022-08-19T12:51:31;8.03;;;4.90;;
15716;SDS011;7960;50.908;4.204;2022-08-19T12:53:57;6.90;;;5.07;;
15716;SDS011;7960;50.908;4.204;2022-08-19T12:56:27;5.07;;;4.53;;
15716;SDS011;7960;50.908;4.204;2022-08-19T12:58:54;6.67;;;5.10;;
15716;SDS011;7960;50.908;4.204;2022-08-19T13:01:21;5.27;;;4.77;;
15716;SDS011;7960;50.908;4.204;2022-08-19T13:03:48;6.37;;;4.70;;
15716;SDS011;7960;50.908;4.204;2022-08-19T13:06:15;4.90;;;4.50;;
15716;SDS011;7960;50.908;4.204;2022-08-19T13:08:43;4.50;;;4.03;;
15716;SDS011;7960;50.908;4.204;2022-08-19T13:11:11;4.60;;;4.20;;
15716;SDS011;7960;50.908;4.204;2022-08-19T13:13:43;5.73;;;4.23;;
15716;SDS011;7960;50.908;4.204;2022-08-19T13:16:12;5.63;;;4.67;;
15716;SDS011;7960;50.908;4.204;2022-08-19T13:18:40;5.13;;;4.40;;
15716;SDS011;7960;50.908;4.204;2022-08-19T13:21:09;5.33;;;4.50;;
15716;SDS011;7960;50.908;4.204;2022-08-19T13:23:38;5.63;;;4.57;;
15716;SDS011;7960;50.908;4.204;2022-08-19T13:26:07;6.63;;;4.20;;
15716;SDS011;7960;50.908;4.204;2022-08-19T13:28:35;4.70;;;4.07;;
15716;SDS011;7960;50.908;4.204;2022-08-19T13:31:17;4.00;;;3.60;;
15716;SDS011;7960;50.908;4.204;2022-08-19T13:34:05;7.50;;;3.93;;
15716;SDS011;7960;50.908;4.204;2022-08-19T13:36:32;3.90;;;3.60;;
15716;SDS011;7960;50.908;4.204;2022-08-19T13:38:59;3.33;;;3.03;;
15716;SDS011;7960;50.908;4.204;2022-08-19T13:41:26;4.23;;;3.50;;
15716;SDS011;7960;50.908;4.204;2022-08-19T13:43:53;3.23;;;2.90;;
15716;SDS011;7960;50.908;4.204;2022-08-19T13:46:21;5.07;;;2.90;;
15716;SDS011;7960;50.908;4.204;2022-08-19T13:48:48;2.93;;;2.50;;
15716;SDS011;7960;50.908;4.204;2022-08-19T13:51:16;4.40;;;2.53;;
15716;SDS011;7960;50.908;4.204;2022-08-19T13:53:43;3.47;;;3.17;;
15716;SDS011;7960;50.908;4.204;2022-08-19T13:56:11;3.80;;;2.70;;
15716;SDS011;7960;50.908;4.204;2022-08-19T13:58:42;3.27;;;2.97;;
15716;SDS011;7960;50.908;4.204;2022-08-19T14:01:09;4.90;;;3.80;;
15716;SDS011;7960;50.908;4.204;2022-08-19T14:03:38;5.63;;;4.40;;
15716;SDS011;7960;50.908;4.204;2022-08-19T14:06:05;4.63;;;4.23;;
15716;SDS011;7960;50.908;4.204;2022-08-19T14:08:32;4.77;;;4.23;;
15716;SDS011;7960;50.908;4.204;2022-08-19T14:10:59;4.50;;;4.10;;
15716;SDS011;7960;50.908;4.204;2022-08-19T14:13:27;4.80;;;4.30;;
15716;SDS011;7960;50.908;4.204;2022-08-19T14:15:54;4.13;;;3.73;;
15716;SDS011;7960;50.908;4.204;2022-08-19T14:18:23;5.00;;;3.73;;
15716;SDS011;7960;50.908;4.204;2022-08-19T14:20:51;5.57;;;4.10;;
15716;SDS011;7960;50.908;4.204;2022-08-19T14:23:19;5.30;;;3.33;;
15716;SDS011;7960;50.908;4.204;2022-08-19T14:25:46;4.07;;;3.40;;
15716;SDS011;7960;50.908;4.204;2022-08-19T14:28:13;6.40;;;3.67;;
15716;SDS011;7960;50.908;4.204;2022-08-19T14:30:41;4.03;;;3.47;;
15716;SDS011;7960;50.908;4.204;2022-08-19T14:33:09;5.27;;;3.57;;
15716;SDS011;7960;50.908;4.204;2022-08-19T14:35:36;3.93;;;3.57;;
15716;SDS011;7960;50.908;4.204;2022-08-19T14:38:05;4.93;;;3.63;;
15716;SDS011;7960;50.908;4.204;2022-08-19T14:40:41;4.30;;;3.87;;
15716;SDS011;7960;50.908;4.204;2022-08-19T14:43:08;6.53;;;3.77;;
15716;SDS011;7960;50.908;4.204;2022-08-19T14:45:36;5.07;;;3.87;;
15716;SDS011;7960;50.908;4.204;2022-08-19T14:48:04;6.93;;;3.90;;
15716;SDS011;7960;50.908;4.204;2022-08-19T14:50:32;3.60;;;3.30;;
15716;SDS011;7960;50.908;4.204;2022-08-19T14:53:01;4.03;;;3.43;;
15716;SDS011;7960;50.908;4.204;2022-08-19T14:55:33;3.17;;;2.87;;